createdAt,value
2019-05-19T00:00:40.724Z,13.80
2019-05-19T00:05:45.930Z,13.70
2019-05-19T00:10:52.913Z,13.50
2019-05-19T00:15:58.102Z,13.50
2019-05-19T00:21:02.996Z,13.50
2019-05-19T00:26:08.203Z,13.50
2019-05-19T00:31:13.394Z,13.50
2019-05-19T00:36:19.707Z,13.40
2019-05-19T00:41:25.112Z,13.40
2019-05-19T00:46:30.278Z,13.40
2019-05-19T00:51:36.034Z,13.40
2019-05-19T00:56:41.866Z,13.30
2019-05-19T01:01:47.079Z,13.30
2019-05-19T01:06:52.907Z,13.20
2019-05-19T01:11:58.812Z,13.20
2019-05-19T01:17:04.248Z,13.20
2019-05-19T01:22:10.615Z,13.30
2019-05-19T01:27:15.806Z,13.20
2019-05-19T01:32:21.180Z,13.30
2019-05-19T01:37:26.275Z,13.40
2019-05-19T01:42:31.477Z,13.40
2019-05-19T01:47:36.653Z,13.40
2019-05-19T01:52:42.682Z,13.40
2019-05-19T01:57:49.888Z,13.40
2019-05-19T02:02:55.574Z,13.40
2019-05-19T02:08:00.796Z,13.50
2019-05-19T02:13:06.018Z,13.60
2019-05-19T02:18:11.342Z,13.70
2019-05-19T02:23:16.442Z,13.70
2019-05-19T02:28:21.383Z,13.70
2019-05-19T02:33:26.728Z,13.70
2019-05-19T02:38:31.808Z,13.80
2019-05-19T02:43:38.966Z,13.80
2019-05-19T02:48:45.775Z,13.70
2019-05-19T02:53:52.496Z,13.70
2019-05-19T02:58:58.639Z,13.60
2019-05-19T03:04:03.874Z,13.60
2019-05-19T03:09:08.736Z,13.60
2019-05-19T03:14:14.098Z,13.60
2019-05-19T03:19:19.296Z,13.60
2019-05-19T03:24:24.399Z,13.60
2019-05-19T03:29:31.095Z,13.70
2019-05-19T03:34:36.382Z,13.70
2019-05-19T03:39:41.568Z,13.70
2019-05-19T03:44:46.842Z,13.70
2019-05-19T03:49:52.103Z,13.80
2019-05-19T03:54:57.236Z,13.90
2019-05-19T04:00:02.651Z,13.90
2019-05-19T04:05:08.876Z,14.00
2019-05-19T04:10:14.134Z,14.10
2019-05-19T04:15:19.455Z,14.20
2019-05-19T04:20:24.676Z,14.40
2019-05-19T04:25:29.974Z,14.50
2019-05-19T04:30:35.349Z,14.60
2019-05-19T04:35:40.527Z,14.70
2019-05-19T04:40:45.495Z,14.80
2019-05-19T04:45:50.786Z,14.80
2019-05-19T04:50:56.168Z,14.90
2019-05-19T04:56:01.503Z,15.00
2019-05-19T05:01:06.549Z,15.00
2019-05-19T05:06:11.539Z,15.10
2019-05-19T05:11:16.505Z,15.20
2019-05-19T05:16:21.810Z,15.30
2019-05-19T05:21:26.909Z,15.40
2019-05-19T05:26:31.892Z,15.50
2019-05-19T05:31:37.019Z,15.60
2019-05-19T05:36:42.179Z,15.60
2019-05-19T05:41:47.739Z,15.70
2019-05-19T05:46:53.247Z,15.90
2019-05-19T05:51:58.625Z,16.00
2019-05-19T05:57:04.210Z,16.10
2019-05-19T06:02:09.385Z,16.20
2019-05-19T06:07:14.522Z,16.20
2019-05-19T06:12:19.755Z,16.20
2019-05-19T06:17:25.014Z,16.30
2019-05-19T06:22:30.202Z,16.40
2019-05-19T06:27:35.285Z,16.40
2019-05-19T06:32:45.243Z,16.50
2019-05-19T06:37:50.266Z,16.60
2019-05-19T06:42:55.728Z,16.60
2019-05-19T06:48:01.063Z,16.70
2019-05-19T06:53:13.990Z,16.70
2019-05-19T06:58:13.175Z,16.70
2019-05-19T07:03:18.366Z,16.70
2019-05-19T07:08:23.525Z,16.80
2019-05-19T07:13:29.039Z,16.70
2019-05-19T07:18:34.615Z,16.70
2019-05-19T07:23:40.382Z,16.80
2019-05-19T07:28:45.822Z,16.80
2019-05-19T07:33:51.399Z,16.80
2019-05-19T07:38:56.637Z,16.90
2019-05-19T07:44:02.083Z,16.90
2019-05-19T07:49:07.548Z,17.00
2019-05-19T07:54:12.716Z,17.20
2019-05-19T07:59:18.416Z,17.40
2019-05-19T08:04:24.319Z,17.60
2019-05-19T08:09:29.665Z,17.80
2019-05-19T08:14:34.823Z,18.10
2019-05-19T08:19:41.579Z,18.20
2019-05-19T08:24:46.964Z,18.50
2019-05-19T08:29:51.924Z,18.80
2019-05-19T08:34:57.034Z,19.00
2019-05-19T08:40:02.311Z,19.10
2019-05-19T08:45:10.237Z,19.20
2019-05-19T08:50:15.369Z,19.20
2019-05-19T08:55:20.351Z,19.20
2019-05-19T09:00:25.257Z,19.20
2019-05-19T09:05:30.656Z,19.10
2019-05-19T09:10:35.932Z,19.20
2019-05-19T09:15:41.660Z,19.30
2019-05-19T09:20:46.936Z,19.50
2019-05-19T09:25:51.834Z,19.70
2019-05-19T09:30:56.806Z,20.00
2019-05-19T09:36:01.704Z,20.20
2019-05-19T09:41:07.143Z,20.60
2019-05-19T09:46:13.964Z,20.90
2019-05-19T09:51:19.376Z,21.30
2019-05-19T09:56:24.518Z,21.60
2019-05-19T10:01:29.673Z,21.90
2019-05-19T10:06:34.903Z,22.00
2019-05-19T10:11:59.900Z,22.00
2019-05-19T10:17:05.250Z,21.80
2019-05-19T10:22:10.368Z,21.60
2019-05-19T10:27:15.328Z,21.30
2019-05-19T10:32:20.476Z,20.90
2019-05-19T10:37:25.810Z,20.60
2019-05-19T10:42:31.115Z,20.40
2019-05-19T10:47:36.664Z,20.10
2019-05-19T10:52:41.901Z,20.00
2019-05-19T10:57:46.998Z,19.90
2019-05-19T11:02:52.035Z,19.80
2019-05-19T11:07:57.029Z,19.90
2019-05-19T11:13:02.133Z,20.20
2019-05-19T11:18:07.435Z,20.50
2019-05-19T11:23:12.668Z,21.00
2019-05-19T11:28:18.013Z,21.30
2019-05-19T11:33:23.385Z,21.40
2019-05-19T11:38:28.722Z,21.50
2019-05-19T11:43:33.947Z,21.60
2019-05-19T11:48:39.213Z,21.80
2019-05-19T11:53:44.387Z,21.80
2019-05-19T11:58:49.515Z,21.80
2019-05-19T12:03:55.519Z,22.00
2019-05-19T12:09:01.110Z,22.40
2019-05-19T12:14:06.020Z,22.40
2019-05-19T12:19:11.414Z,22.30
2019-05-19T12:24:16.597Z,22.20
2019-05-19T12:29:21.863Z,22.30
2019-05-19T12:34:27.258Z,22.60
2019-05-19T12:39:32.531Z,23.30
2019-05-19T12:44:37.635Z,23.90
2019-05-19T12:49:42.838Z,23.80
2019-05-19T12:54:48.173Z,23.60
2019-05-19T12:59:54.573Z,23.40
2019-05-19T13:05:04.724Z,23.40
2019-05-19T13:10:08.460Z,23.50
2019-05-19T13:15:15.655Z,23.80
2019-05-19T13:20:21.018Z,23.90
2019-05-19T13:25:26.178Z,23.70
2019-05-19T13:30:31.498Z,23.50
2019-05-19T13:35:36.684Z,23.30
2019-05-19T13:40:41.851Z,23.20
2019-05-19T13:45:47.053Z,23.10
2019-05-19T13:50:52.255Z,23.30
2019-05-19T13:55:57.458Z,23.50
2019-05-19T14:01:02.722Z,24.10
2019-05-19T14:06:07.908Z,24.70
2019-05-19T14:11:12.827Z,25.10
2019-05-19T14:16:17.786Z,24.80
2019-05-19T14:21:23.078Z,24.60
2019-05-19T14:26:28.423Z,24.50
2019-05-19T14:31:33.616Z,24.70
2019-05-19T14:36:38.975Z,24.90
2019-05-19T14:41:45.722Z,25.20
2019-05-19T14:46:51.123Z,25.10
2019-05-19T14:51:56.288Z,24.60
2019-05-19T14:57:01.578Z,24.10
2019-05-19T15:02:06.912Z,23.90
2019-05-19T15:07:12.095Z,23.90
2019-05-19T15:12:17.100Z,23.90
2019-05-19T15:17:22.380Z,24.10
2019-05-19T15:22:27.568Z,24.10
2019-05-19T15:27:32.527Z,24.00
2019-05-19T15:32:37.712Z,23.80
2019-05-19T15:37:42.960Z,23.40
2019-05-19T15:42:48.354Z,23.20
2019-05-19T15:47:53.506Z,23.40
2019-05-19T15:52:58.737Z,23.50
2019-05-19T15:58:15.676Z,23.80
2019-05-19T16:03:10.982Z,24.00
2019-05-19T16:08:16.352Z,24.20
2019-05-19T16:13:22.178Z,24.50
2019-05-19T16:18:27.577Z,24.80
2019-05-19T16:23:33.111Z,24.90
2019-05-19T16:28:38.372Z,25.00
2019-05-19T16:33:43.361Z,25.10
2019-05-19T16:38:48.521Z,25.00
2019-05-19T16:43:53.811Z,25.00
2019-05-19T16:48:59.063Z,25.00
2019-05-19T16:54:05.879Z,24.80
2019-05-19T16:59:13.967Z,24.60
2019-05-19T17:09:31.261Z,24.40
2019-05-19T17:14:36.780Z,24.20
2019-05-19T17:19:41.982Z,24.00
2019-05-19T17:24:47.536Z,23.90
2019-05-19T17:29:52.687Z,23.80
2019-05-19T17:34:58.284Z,23.70
2019-05-19T17:40:04.215Z,23.70
2019-05-19T17:45:09.991Z,23.60
2019-05-19T17:50:17.460Z,23.50
2019-05-19T17:55:23.088Z,23.20
2019-05-19T18:00:40.500Z,23.10
2019-05-19T18:05:45.849Z,23.00
2019-05-19T18:10:51.781Z,22.90
2019-05-19T18:15:56.980Z,22.70
2019-05-19T18:21:04.050Z,22.40
2019-05-19T18:26:09.213Z,22.10
2019-05-19T18:31:14.857Z,21.80
2019-05-19T18:36:20.182Z,21.50
2019-05-19T18:41:25.661Z,21.30
2019-05-19T18:46:31.138Z,21.10
2019-05-19T18:51:36.339Z,20.90
2019-05-19T18:56:41.537Z,20.70
2019-05-19T19:01:47.539Z,20.60
2019-05-19T19:06:53.129Z,20.40
2019-05-19T19:11:59.207Z,20.20
2019-05-19T19:17:04.787Z,20.10
2019-05-19T19:22:12.856Z,19.90
2019-05-19T19:27:18.151Z,19.80
2019-05-19T19:32:23.445Z,19.70
2019-05-19T19:37:28.927Z,19.50
2019-05-19T19:42:34.167Z,19.40
2019-05-19T19:47:39.942Z,19.20
2019-05-19T19:52:45.535Z,19.10
2019-05-19T19:58:02.806Z,19.00
2019-05-19T20:03:08.681Z,18.80
2019-05-19T20:08:14.177Z,18.70
2019-05-19T20:13:19.567Z,18.60
2019-05-19T20:18:24.725Z,18.50
2019-05-19T20:23:30.126Z,18.40
2019-05-19T20:28:35.605Z,18.20
2019-05-19T20:33:41.285Z,18.10
2019-05-19T20:38:49.837Z,18.00
2019-05-19T20:43:55.285Z,17.90
2019-05-19T20:49:00.848Z,17.80
2019-05-19T20:54:06.259Z,17.70
2019-05-19T20:59:11.905Z,17.60
2019-05-19T21:04:17.539Z,17.50
2019-05-19T21:09:22.831Z,17.40
2019-05-19T21:14:28.209Z,17.30
2019-05-19T21:19:33.559Z,17.20
2019-05-19T21:24:38.790Z,17.10
2019-05-19T21:29:44.018Z,17.00
2019-05-19T21:34:49.002Z,17.00
2019-05-19T21:39:54.369Z,16.90
2019-05-19T21:44:59.569Z,16.80
2019-05-19T21:50:07.728Z,16.70
2019-05-19T21:55:13.547Z,16.60
2019-05-19T22:00:19.586Z,16.50
2019-05-19T22:05:25.408Z,16.40
2019-05-19T22:10:30.813Z,16.40
2019-05-19T22:15:36.060Z,16.30
2019-05-19T22:20:41.485Z,16.30
2019-05-19T22:25:46.483Z,16.20
2019-05-19T22:30:51.830Z,16.10
2019-05-19T22:35:57.086Z,16.00
2019-05-19T22:41:02.274Z,15.90
2019-05-19T22:46:07.493Z,15.80
2019-05-19T22:51:12.839Z,15.70
2019-05-19T22:56:18.031Z,15.60
2019-05-19T23:01:23.324Z,15.40
2019-05-19T23:06:28.688Z,15.20
2019-05-19T23:11:34.331Z,15.20
2019-05-19T23:16:39.687Z,15.10
2019-05-19T23:21:45.033Z,15.00
2019-05-19T23:26:50.519Z,14.90
2019-05-19T23:32:06.677Z,14.80
2019-05-19T23:37:02.349Z,14.70
2019-05-19T23:42:07.694Z,14.60
2019-05-19T23:47:13.066Z,14.40
2019-05-19T23:52:18.330Z,14.40
2019-05-19T23:57:23.692Z,14.30
